createdAt,value
2022-08-02T00:01:34.298Z,15.38
2022-08-02T00:06:39.107Z,12.05
2022-08-02T00:11:44.232Z,14.18
2022-08-02T00:16:48.074Z,10.93
2022-08-02T00:21:52.423Z,16.38
2022-08-02T00:26:57.682Z,9.02
2022-08-02T00:37:05.444Z,15.40
2022-08-02T00:42:11.642Z,10.25
2022-08-02T00:47:19.303Z,14.63
2022-08-02T00:52:24.167Z,14.70
2022-08-02T00:57:29.342Z,13.88
2022-08-02T01:02:33.233Z,11.32
2022-08-02T01:07:37.120Z,8.73
2022-08-02T01:12:42.765Z,10.05
2022-08-02T01:17:53.949Z,12.43
2022-08-02T01:23:10.609Z,14.07
2022-08-02T01:28:30.099Z,11.02
2022-08-02T01:33:41.035Z,11.82
2022-08-02T01:38:49.415Z,16.45
2022-08-02T01:43:59.085Z,13.52
2022-08-02T01:49:06.845Z,13.90
2022-08-02T01:54:16.221Z,13.45
2022-08-02T01:59:24.108Z,10.73
2022-08-02T02:04:30.413Z,10.73
2022-08-02T02:09:47.668Z,13.07
2022-08-02T02:14:57.298Z,11.05
2022-08-02T02:20:04.135Z,12.02
2022-08-02T02:25:11.258Z,11.55
2022-08-02T02:30:18.241Z,11.95
2022-08-02T02:35:23.760Z,13.85
2022-08-02T02:40:29.911Z,11.55
2022-08-02T02:45:37.351Z,16.75
2022-08-02T02:50:42.974Z,29.88
2022-08-02T02:56:02.646Z,11.02
2022-08-02T03:01:56.150Z,12.30
2022-08-02T03:06:54.348Z,16.52
2022-08-02T03:12:01.918Z,12.90
2022-08-02T03:17:10.315Z,17.02
2022-08-02T03:22:17.930Z,11.63
2022-08-02T03:27:25.180Z,16.08
2022-08-02T03:32:33.757Z,15.48
2022-08-02T03:37:41.653Z,12.60
2022-08-02T03:42:50.170Z,14.63
2022-08-02T03:48:00.404Z,11.82
2022-08-02T03:53:08.581Z,10.00
2022-08-02T03:58:28.008Z,14.40
2022-08-02T04:03:36.863Z,8.45
2022-08-02T04:08:43.984Z,16.30
2022-08-02T04:13:51.126Z,15.35
2022-08-02T04:19:03.558Z,13.38
2022-08-02T04:24:13.428Z,15.60
2022-08-02T04:29:27.697Z,10.70
2022-08-02T04:34:36.679Z,10.52
2022-08-02T04:39:44.608Z,14.63
2022-08-02T04:44:52.273Z,12.77
2022-08-02T04:50:01.058Z,15.50
2022-08-02T04:55:09.151Z,10.07
2022-08-02T05:00:22.916Z,7.60
2022-08-02T05:05:31.695Z,12.93
2022-08-02T05:10:39.163Z,21.58
2022-08-02T05:15:46.386Z,10.45
2022-08-02T05:20:58.139Z,14.30
2022-08-02T05:26:05.164Z,13.70
2022-08-02T05:31:13.321Z,14.73
2022-08-02T05:36:22.258Z,11.85
2022-08-02T05:41:29.309Z,15.52
2022-08-02T05:46:36.615Z,12.95
2022-08-02T05:51:54.838Z,17.13
2022-08-02T05:57:07.949Z,24.08
2022-08-02T06:02:30.316Z,18.25
2022-08-02T06:07:40.227Z,15.38
2022-08-02T06:12:52.149Z,16.77
2022-08-02T06:18:00.946Z,14.80
2022-08-02T06:23:13.701Z,16.98
2022-08-02T06:28:22.450Z,12.80
2022-08-02T06:33:29.492Z,13.75
2022-08-02T06:38:43.905Z,13.73
2022-08-02T06:44:26.279Z,14.38
2022-08-02T06:49:52.789Z,18.13
2022-08-02T06:55:09.107Z,12.60
2022-08-02T07:00:22.933Z,10.73
2022-08-02T07:05:40.186Z,13.38
2022-08-02T07:11:01.016Z,10.27
2022-08-02T07:16:21.083Z,10.60
2022-08-02T07:21:57.124Z,24.13
2022-08-02T07:27:23.678Z,16.85
2022-08-02T07:32:35.635Z,11.38
2022-08-02T07:37:58.029Z,17.83
2022-08-02T07:43:14.152Z,13.73
2022-08-02T07:48:24.410Z,14.27
2022-08-02T07:53:50.916Z,9.27
2022-08-02T07:59:00.411Z,12.75
2022-08-02T08:04:08.121Z,11.35
2022-08-02T08:09:15.614Z,11.98
2022-08-02T08:14:24.009Z,14.93
2022-08-02T08:19:50.437Z,15.95
2022-08-02T08:24:58.337Z,10.75
2022-08-02T08:30:10.861Z,11.50
2022-08-02T08:35:18.377Z,14.75
2022-08-02T08:40:28.170Z,14.25
2022-08-02T08:45:36.630Z,16.52
2022-08-02T08:50:52.715Z,14.02
2022-08-02T08:56:00.179Z,14.55
2022-08-02T09:01:11.676Z,14.75
2022-08-02T09:06:18.402Z,13.13
2022-08-02T09:11:28.100Z,14.85
2022-08-02T09:16:38.639Z,15.30
2022-08-02T09:21:48.934Z,13.98
2022-08-02T09:26:56.238Z,11.35
2022-08-02T09:32:07.067Z,14.75
2022-08-02T09:37:25.904Z,13.30
2022-08-02T09:42:32.372Z,14.23
2022-08-02T09:47:40.344Z,11.48
2022-08-02T09:52:47.747Z,13.07
2022-08-02T09:57:55.416Z,10.43
2022-08-02T10:03:21.939Z,10.30
2022-08-02T10:08:33.019Z,10.15
2022-08-02T10:13:40.798Z,12.35
2022-08-02T10:18:49.487Z,6.22
2022-08-02T10:24:02.700Z,9.65
2022-08-02T10:29:11.914Z,10.27
2022-08-02T10:34:31.626Z,10.00
2022-08-02T10:39:42.599Z,7.55
2022-08-02T10:44:49.039Z,10.88
2022-08-02T10:49:58.879Z,8.80
2022-08-02T10:55:22.399Z,10.05
2022-08-02T11:00:31.043Z,11.00
2022-08-02T11:05:42.697Z,10.82
2022-08-02T11:10:50.982Z,11.43
2022-08-02T11:16:01.892Z,9.20
2022-08-02T11:21:26.991Z,8.68
2022-08-02T11:26:55.255Z,7.60
2022-08-02T11:32:03.084Z,11.55
2022-08-02T11:37:12.135Z,10.13
2022-08-02T11:42:19.243Z,10.70
2022-08-02T11:47:26.434Z,10.82
2022-08-02T11:52:38.121Z,11.18
2022-08-02T11:58:03.212Z,10.32
2022-08-02T12:03:14.390Z,11.10
2022-08-02T12:08:28.630Z,14.63
2022-08-02T12:13:56.893Z,12.65
2022-08-02T12:19:23.921Z,13.45
2022-08-02T12:24:32.477Z,12.15
2022-08-02T12:29:58.573Z,9.60
2022-08-02T12:35:26.671Z,8.25
2022-08-02T12:40:36.142Z,12.40
2022-08-02T12:45:53.710Z,9.13
2022-08-02T12:51:00.882Z,14.77
2022-08-02T12:56:12.839Z,11.77
2022-08-02T13:01:34.599Z,12.48
2022-08-02T13:07:13.372Z,12.57
2022-08-02T13:12:37.267Z,11.70
2022-08-02T13:17:43.725Z,9.23
2022-08-02T13:22:52.864Z,10.63
2022-08-02T13:27:58.849Z,10.35
2022-08-02T13:33:02.796Z,11.00
2022-08-02T13:38:06.723Z,10.88
2022-08-02T13:43:52.826Z,18.00
2022-08-02T13:48:59.394Z,10.48
2022-08-02T13:54:03.112Z,13.30
2022-08-02T13:59:54.898Z,11.40
2022-08-02T14:04:32.957Z,9.98
2022-08-02T14:09:36.958Z,10.70
2022-08-02T14:14:42.621Z,10.63
2022-08-02T14:19:49.315Z,11.10
2022-08-02T14:24:53.479Z,9.07
2022-08-02T14:29:58.855Z,16.92
2022-08-02T14:35:02.885Z,13.20
2022-08-02T14:40:27.724Z,11.30
2022-08-02T14:45:40.128Z,11.07
2022-08-02T14:50:45.383Z,10.73
2022-08-02T14:55:49.608Z,13.02
2022-08-02T15:00:55.087Z,13.20
2022-08-02T15:05:59.391Z,12.48
2022-08-02T15:11:03.824Z,12.40
2022-08-02T15:16:10.450Z,15.75
2022-08-02T15:21:36.595Z,15.63
2022-08-02T15:26:39.968Z,15.75
2022-08-02T15:31:45.413Z,14.95
2022-08-02T15:36:49.866Z,16.83
2022-08-02T15:41:54.278Z,16.60
2022-08-02T15:47:00.413Z,15.60
2022-08-02T15:52:05.266Z,15.60
2022-08-02T15:57:09.309Z,14.10
2022-08-02T16:02:16.149Z,16.42
2022-08-02T16:07:20.526Z,15.23
2022-08-02T16:12:32.373Z,15.82
2022-08-02T16:17:51.554Z,14.73
2022-08-02T16:22:58.278Z,17.15
2022-08-02T16:28:07.364Z,19.15
2022-08-02T16:33:13.309Z,18.27
2022-08-02T16:43:20.902Z,19.30
2022-08-02T16:48:25.907Z,16.15
2022-08-02T16:53:36.237Z,14.45
2022-08-02T16:58:41.092Z,14.75
2022-08-02T17:03:56.317Z,15.85
2022-08-02T17:09:02.106Z,19.48
2022-08-02T17:20:37.677Z,22.60
2022-08-02T17:25:43.330Z,19.00
2022-08-02T17:30:56.589Z,21.27
2022-08-02T17:36:01.971Z,19.53
2022-08-02T17:41:06.460Z,19.33
2022-08-02T17:46:19.206Z,20.02
2022-08-02T17:52:15.338Z,20.48
2022-08-02T17:56:50.956Z,23.20
2022-08-02T18:07:09.850Z,26.08
2022-08-02T18:12:15.580Z,19.80
2022-08-02T18:17:25.002Z,16.65
2022-08-02T18:22:34.431Z,21.20
2022-08-02T18:27:38.979Z,35.53
2022-08-02T18:33:57.333Z,25.13
2022-08-02T18:38:11.750Z,26.75
2022-08-02T18:43:15.772Z,21.38
2022-08-02T18:48:20.317Z,27.93
2022-08-02T18:58:52.121Z,30.20
2022-08-02T19:03:56.283Z,24.50
2022-08-02T19:09:12.761Z,25.02
2022-08-02T19:14:24.096Z,26.88
2022-08-02T19:19:31.892Z,22.63
2022-08-02T19:24:38.593Z,27.20
2022-08-02T19:29:53.415Z,30.70
2022-08-02T19:35:00.263Z,28.67
2022-08-02T19:40:07.948Z,29.55
2022-08-02T19:45:14.061Z,29.15
2022-08-02T19:50:19.539Z,29.70
2022-08-02T19:55:58.305Z,33.13
2022-08-02T20:01:20.687Z,31.65
2022-08-02T20:06:34.750Z,26.92
2022-08-02T20:11:40.624Z,31.90
2022-08-02T20:16:46.016Z,32.55
2022-08-02T20:21:55.501Z,31.20
2022-08-02T20:27:04.600Z,29.70
2022-08-02T20:32:08.268Z,29.15
2022-08-02T20:38:01.088Z,33.47
2022-08-02T20:42:37.547Z,34.63
2022-08-02T20:47:43.233Z,32.10
2022-08-02T20:52:53.528Z,31.15
2022-08-02T20:58:01.086Z,31.60
2022-08-02T21:03:08.880Z,22.08
2022-08-02T21:08:15.133Z,35.50
2022-08-02T21:13:24.097Z,33.63
2022-08-02T21:18:40.194Z,30.00
2022-08-02T21:23:48.940Z,29.08
2022-08-02T21:29:03.047Z,28.67
2022-08-02T21:34:22.000Z,26.08
2022-08-02T21:39:32.320Z,30.65
2022-08-02T21:44:37.405Z,32.30
2022-08-02T21:50:13.238Z,35.15
2022-08-02T21:55:09.114Z,25.38
2022-08-02T22:00:22.543Z,37.35
2022-08-02T22:05:37.317Z,36.78
2022-08-02T22:10:55.187Z,30.90
2022-08-02T22:16:02.505Z,38.70
2022-08-02T22:21:14.210Z,30.67
2022-08-02T22:26:19.199Z,29.63
2022-08-02T22:31:40.874Z,31.80
2022-08-02T22:36:46.032Z,32.20
2022-08-02T22:42:05.949Z,33.47
2022-08-02T22:47:14.717Z,32.45
2022-08-02T22:52:36.054Z,28.70
2022-08-02T22:57:56.792Z,28.05
2022-08-02T22:58:57.558Z,32.65
2022-08-02T23:03:02.178Z,32.85
2022-08-02T23:08:07.052Z,35.05
2022-08-02T23:13:10.864Z,29.85
2022-08-02T23:18:33.267Z,33.03
2022-08-02T23:23:37.304Z,32.97
2022-08-02T23:28:41.172Z,29.00
2022-08-02T23:34:03.541Z,38.58
2022-08-02T23:39:08.616Z,30.33
2022-08-02T23:44:14.247Z,34.95
2022-08-02T23:49:20.741Z,31.40
2022-08-02T23:54:25.371Z,33.15
2022-08-02T23:59:28.996Z,37.50
